createdAt,value
2022-08-12T00:02:45.370Z,23.81
2022-08-12T00:05:31.581Z,23.72
2022-08-12T00:08:17.559Z,23.65
2022-08-12T00:11:14.284Z,23.68
2022-08-12T00:13:59.881Z,23.65
2022-08-12T00:16:48.627Z,23.60
2022-08-12T00:19:34.099Z,23.75
2022-08-12T00:22:20.217Z,23.69
2022-08-12T00:25:06.105Z,23.71
2022-08-12T00:27:51.663Z,23.60
2022-08-12T00:30:37.257Z,23.59
2022-08-12T00:33:22.410Z,23.67
2022-08-12T00:36:30.683Z,23.65
2022-08-12T00:39:22.304Z,23.63
2022-08-12T00:42:08.418Z,23.62
2022-08-12T00:44:35.182Z,23.58
2022-08-12T00:47:02.381Z,23.59
2022-08-12T00:49:30.603Z,23.44
2022-08-12T00:52:06.598Z,23.47
2022-08-12T00:54:47.182Z,23.26
2022-08-12T00:57:21.811Z,23.32
2022-08-12T00:59:50.458Z,23.38
2022-08-12T01:02:34.346Z,23.29
2022-08-12T01:05:20.695Z,23.31
2022-08-12T01:08:07.146Z,23.27
2022-08-12T01:10:57.987Z,23.21
2022-08-12T01:13:25.654Z,23.26
2022-08-12T01:15:59.468Z,23.13
2022-08-12T01:18:29.150Z,23.14
2022-08-12T01:21:33.357Z,22.87
2022-08-12T01:24:36.635Z,22.87
2022-08-12T01:27:07.844Z,22.97
2022-08-12T01:29:41.724Z,22.84
2022-08-12T01:32:11.994Z,22.86
2022-08-12T01:34:45.486Z,22.80
2022-08-12T01:37:13.419Z,22.84
2022-08-12T01:40:33.606Z,22.79
2022-08-12T01:42:34.550Z,22.78
2022-08-12T01:45:02.003Z,22.87
2022-08-12T01:47:42.985Z,22.85
2022-08-12T01:50:16.759Z,22.86
2022-08-12T01:52:55.245Z,22.56
2022-08-12T01:55:32.419Z,22.74
2022-08-12T01:58:15.557Z,22.50
2022-08-12T02:00:55.438Z,22.64
2022-08-12T02:04:05.915Z,22.32
2022-08-12T02:07:24.985Z,22.33
2022-08-12T02:10:50.159Z,22.36
2022-08-12T02:13:48.145Z,22.52
2022-08-12T02:16:16.093Z,22.57
2022-08-12T02:19:22.232Z,22.49
2022-08-12T02:22:28.193Z,22.40
2022-08-12T02:25:26.967Z,22.30
2022-08-12T02:27:55.459Z,22.49
2022-08-12T02:30:33.242Z,22.39
2022-08-12T02:33:09.814Z,22.42
2022-08-12T02:35:37.516Z,22.50
2022-08-12T02:38:06.815Z,22.56
2022-08-12T02:40:36.531Z,22.47
2022-08-12T02:43:05.738Z,22.54
2022-08-12T02:45:42.648Z,22.41
2022-08-12T02:48:11.059Z,22.53
2022-08-12T02:50:42.335Z,22.60
2022-08-12T02:53:09.259Z,22.62
2022-08-12T02:55:38.745Z,22.64
2022-08-12T02:58:12.366Z,22.48
2022-08-12T03:00:43.964Z,22.52
2022-08-12T03:03:13.343Z,22.44
2022-08-12T03:05:59.229Z,22.34
2022-08-12T03:08:32.736Z,22.59
2022-08-12T03:11:14.353Z,22.56
2022-08-12T03:13:46.731Z,22.61
2022-08-12T03:16:14.657Z,22.63
2022-08-12T03:18:45.832Z,22.65
2022-08-12T03:21:16.594Z,22.60
2022-08-12T03:23:45.395Z,22.68
2022-08-12T03:26:13.009Z,22.69
2022-08-12T03:28:50.311Z,22.63
2022-08-12T03:31:19.918Z,22.65
2022-08-12T03:34:00.856Z,22.53
2022-08-12T03:36:34.729Z,22.53
2022-08-12T03:39:36.505Z,22.49
2022-08-12T03:42:25.342Z,22.30
2022-08-12T03:45:26.525Z,22.38
2022-08-12T03:48:23.399Z,22.46
2022-08-12T03:51:08.794Z,22.43
2022-08-12T03:53:54.712Z,22.48
2022-08-12T03:56:40.159Z,22.38
2022-08-12T03:59:26.260Z,22.40
2022-08-12T04:01:57.275Z,22.46
2022-08-12T04:04:34.052Z,22.20
2022-08-12T04:07:02.660Z,22.20
2022-08-12T04:09:30.294Z,22.22
2022-08-12T04:12:15.682Z,22.25
2022-08-12T04:14:42.427Z,22.19
2022-08-12T04:17:09.247Z,22.14
2022-08-12T04:19:36.712Z,22.10
2022-08-12T04:22:03.913Z,22.05
2022-08-12T04:24:35.395Z,22.02
2022-08-12T04:27:05.577Z,22.05
2022-08-12T04:30:30.065Z,21.97
2022-08-12T04:32:19.254Z,21.87
2022-08-12T04:34:46.145Z,21.98
2022-08-12T04:37:13.148Z,22.01
2022-08-12T04:39:40.433Z,21.96
2022-08-12T04:42:07.170Z,22.08
2022-08-12T04:44:33.858Z,22.16
2022-08-12T04:47:00.710Z,22.28
2022-08-12T04:49:27.974Z,22.18
2022-08-12T04:51:58.988Z,22.22
2022-08-12T04:54:27.161Z,22.22
2022-08-12T04:57:04.234Z,22.27
2022-08-12T04:59:48.700Z,22.23
2022-08-12T05:02:21.134Z,22.34
2022-08-12T05:04:56.066Z,22.32
2022-08-12T05:07:28.409Z,22.44
2022-08-12T05:09:59.804Z,22.43
2022-08-12T05:12:28.718Z,22.07
2022-08-12T05:14:55.877Z,22.40
2022-08-12T05:17:25.106Z,22.34
2022-08-12T05:19:57.124Z,22.12
2022-08-12T05:22:26.269Z,22.20
2022-08-12T05:24:53.278Z,22.11
2022-08-12T05:27:22.726Z,22.27
2022-08-12T05:30:07.972Z,22.24
2022-08-12T05:32:36.925Z,22.20
2022-08-12T05:35:06.746Z,22.05
2022-08-12T05:37:36.766Z,21.89
2022-08-12T05:40:10.731Z,22.05
2022-08-12T05:42:37.895Z,22.05
2022-08-12T05:45:05.865Z,22.09
2022-08-12T05:47:44.839Z,22.08
2022-08-12T05:50:19.680Z,21.98
2022-08-12T05:52:46.339Z,21.92
2022-08-12T05:55:14.785Z,22.04
2022-08-12T05:57:41.517Z,22.18
2022-08-12T06:00:08.603Z,22.18
2022-08-12T06:02:41.880Z,22.15
2022-08-12T06:05:10.545Z,22.25
2022-08-12T06:08:01.955Z,22.16
2022-08-12T06:10:33.357Z,22.38
2022-08-12T06:13:02.140Z,22.42
2022-08-12T06:15:30.633Z,22.52
2022-08-12T06:18:13.838Z,22.48
2022-08-12T06:20:43.289Z,22.65
2022-08-12T06:23:11.560Z,22.67
2022-08-12T06:25:38.298Z,22.75
2022-08-12T06:28:15.473Z,22.77
2022-08-12T06:31:02.656Z,22.85
2022-08-12T06:34:00.206Z,22.89
2022-08-12T06:36:23.601Z,23.01
2022-08-12T06:38:50.750Z,23.05
2022-08-12T06:41:36.435Z,23.11
2022-08-12T06:44:08.941Z,23.10
2022-08-12T06:46:39.289Z,23.17
2022-08-12T06:49:08.565Z,23.24
2022-08-12T06:51:35.217Z,23.26
2022-08-12T06:54:04.033Z,23.34
2022-08-12T06:57:00.189Z,23.39
2022-08-12T06:59:17.473Z,23.43
2022-08-12T07:01:50.859Z,23.50
2022-08-12T07:04:36.360Z,23.54
2022-08-12T07:07:07.227Z,23.56
2022-08-12T07:10:04.157Z,23.59
2022-08-12T07:12:21.840Z,23.66
2022-08-12T07:14:51.195Z,23.69
2022-08-12T07:17:17.890Z,23.72
2022-08-12T07:19:46.705Z,23.82
2022-08-12T07:22:14.865Z,23.85
2022-08-12T07:24:42.170Z,23.82
2022-08-12T07:27:08.924Z,23.81
2022-08-12T07:29:58.182Z,23.86
2022-08-12T07:32:25.569Z,23.88
2022-08-12T07:34:54.522Z,23.96
2022-08-12T07:37:21.409Z,24.03
2022-08-12T07:39:59.774Z,24.09
2022-08-12T07:42:29.104Z,24.15
2022-08-12T07:44:56.206Z,24.21
2022-08-12T07:47:23.664Z,24.25
2022-08-12T07:50:05.263Z,24.29
2022-08-12T07:52:38.452Z,24.34
2022-08-12T07:55:06.950Z,24.38
2022-08-12T07:57:35.366Z,24.43
2022-08-12T08:00:05.449Z,24.46
2022-08-12T08:02:36.876Z,24.48
2022-08-12T08:05:04.497Z,24.51
2022-08-12T08:07:31.395Z,24.52
2022-08-12T08:10:00.968Z,24.55
2022-08-12T08:12:47.585Z,24.53
2022-08-12T08:15:16.499Z,24.56
2022-08-12T08:17:57.649Z,24.52
2022-08-12T08:20:28.584Z,24.59
2022-08-12T08:22:59.998Z,24.62
2022-08-12T08:25:35.788Z,24.67
2022-08-12T08:28:07.020Z,24.72
2022-08-12T08:30:34.131Z,24.77
2022-08-12T08:33:00.984Z,24.83
2022-08-12T08:35:46.202Z,24.84
2022-08-12T08:38:19.837Z,24.90
2022-08-12T08:42:15.683Z,24.92
2022-08-12T08:44:11.447Z,24.98
2022-08-12T08:46:40.492Z,25.04
2022-08-12T08:49:07.207Z,25.07
2022-08-12T08:51:34.410Z,25.09
2022-08-12T08:54:03.230Z,25.09
2022-08-12T08:56:30.340Z,25.14
2022-08-12T08:59:01.975Z,25.13
2022-08-12T09:05:13.511Z,25.16
2022-08-12T09:07:17.814Z,25.15
2022-08-12T09:10:02.033Z,25.18
2022-08-12T09:12:55.045Z,25.02
2022-08-12T09:18:12.660Z,25.14
2022-08-12T09:20:42.440Z,25.20
2022-08-12T09:23:58.463Z,25.22
2022-08-12T09:25:58.200Z,25.24
2022-08-12T09:28:33.041Z,25.20
2022-08-12T09:31:00.280Z,25.23
2022-08-12T09:34:28.791Z,25.26
2022-08-12T09:36:31.487Z,25.12
2022-08-12T09:40:02.485Z,25.33
2022-08-12T09:42:40.311Z,25.37
2022-08-12T09:45:23.415Z,25.29
2022-08-12T09:47:58.911Z,25.30
2022-08-12T09:50:27.225Z,25.32
2022-08-12T09:53:15.713Z,25.21
2022-08-12T09:56:05.674Z,25.33
2022-08-12T09:58:57.193Z,25.37
2022-08-12T10:01:26.379Z,25.40
2022-08-12T10:04:05.662Z,25.45
2022-08-12T10:06:36.025Z,25.45
2022-08-12T10:09:08.118Z,25.45
2022-08-12T10:12:10.417Z,25.50
2022-08-12T10:14:50.070Z,25.55
2022-08-12T10:17:21.458Z,25.54
2022-08-12T10:19:52.057Z,25.52
2022-08-12T10:22:38.814Z,25.59
2022-08-12T10:26:18.195Z,25.64
2022-08-12T10:28:32.219Z,25.65
2022-08-12T10:31:01.134Z,25.63
2022-08-12T10:33:31.655Z,25.62
2022-08-12T10:36:01.714Z,25.62
2022-08-12T10:38:37.676Z,25.63
2022-08-12T10:41:56.780Z,25.66
2022-08-12T10:44:16.903Z,25.74
2022-08-12T10:46:49.560Z,25.73
2022-08-12T10:50:03.592Z,25.75
2022-08-12T10:52:47.166Z,25.80
2022-08-12T10:54:55.810Z,25.80
2022-08-12T10:57:50.413Z,25.80
2022-08-12T11:00:30.566Z,25.79
2022-08-12T11:04:22.643Z,25.87
2022-08-12T11:07:06.337Z,25.89
2022-08-12T11:08:42.165Z,25.96
2022-08-12T11:11:13.602Z,25.99
2022-08-12T11:13:48.931Z,26.02
2022-08-12T11:16:23.058Z,26.03
2022-08-12T11:18:55.166Z,26.06
2022-08-12T11:21:56.056Z,26.07
2022-08-12T11:24:30.347Z,26.09
2022-08-12T11:30:02.159Z,26.03
2022-08-12T11:32:17.934Z,26.11
2022-08-12T11:34:51.594Z,26.11
2022-08-12T11:37:26.900Z,26.15
2022-08-12T11:42:38.165Z,26.23
2022-08-12T11:45:12.640Z,26.24
2022-08-12T11:47:43.119Z,26.32
2022-08-12T11:50:11.603Z,26.37
2022-08-12T11:52:55.914Z,26.42
2022-08-12T11:55:24.230Z,26.44
2022-08-12T11:58:09.589Z,26.43
2022-08-12T12:03:43.643Z,26.36
2022-08-12T12:06:17.736Z,26.35
2022-08-12T12:08:50.608Z,26.42
2022-08-12T12:11:18.919Z,26.46
2022-08-12T12:14:06.683Z,26.50
2022-08-12T12:16:38.222Z,26.51
2022-08-12T12:19:10.427Z,26.53
2022-08-12T12:21:47.815Z,26.58
2022-08-12T12:24:22.141Z,26.61
2022-08-12T12:27:00.262Z,26.67
2022-08-12T12:30:18.915Z,26.71
2022-08-12T12:32:19.183Z,26.77
2022-08-12T12:35:13.561Z,26.82
2022-08-12T12:38:04.436Z,26.85
2022-08-12T12:40:20.799Z,26.88
2022-08-12T12:42:55.898Z,26.86
2022-08-12T12:45:26.946Z,26.89
2022-08-12T12:48:01.045Z,26.91
2022-08-12T12:50:42.409Z,26.92
2022-08-12T12:54:08.162Z,26.94
2022-08-12T12:56:05.685Z,26.97
2022-08-12T12:58:32.380Z,27.03
2022-08-12T13:01:04.914Z,27.06
2022-08-12T13:03:53.184Z,27.10
2022-08-12T13:06:30.285Z,27.10
2022-08-12T13:09:02.803Z,27.07
2022-08-12T13:11:41.222Z,27.14
2022-08-12T13:14:12.638Z,27.16
2022-08-12T13:16:54.383Z,27.21
2022-08-12T13:19:25.416Z,27.24
2022-08-12T13:22:21.742Z,27.25
2022-08-12T13:24:55.557Z,27.26
2022-08-12T13:27:23.167Z,27.18
2022-08-12T13:30:03.670Z,27.34
2022-08-12T13:32:32.993Z,27.39
2022-08-12T13:35:04.285Z,27.36
2022-08-12T13:38:04.186Z,27.20
2022-08-12T13:40:32.894Z,27.22
2022-08-12T13:43:01.757Z,27.20
2022-08-12T13:45:30.783Z,27.18
2022-08-12T13:48:02.408Z,27.14
2022-08-12T13:50:32.775Z,27.13
2022-08-12T13:53:24.951Z,27.19
2022-08-12T13:55:59.439Z,27.32
2022-08-12T13:58:28.929Z,27.41
2022-08-12T14:00:58.099Z,27.43
2022-08-12T14:03:28.643Z,27.51
2022-08-12T14:06:15.226Z,27.55
2022-08-12T14:08:43.155Z,27.64
2022-08-12T14:11:12.451Z,27.70
2022-08-12T14:14:03.522Z,27.74
2022-08-12T14:16:46.691Z,27.75
2022-08-12T14:19:22.177Z,27.76
2022-08-12T14:22:00.536Z,27.76
2022-08-12T14:24:40.803Z,27.75
2022-08-12T14:27:10.749Z,27.68
2022-08-12T14:30:05.863Z,27.62
2022-08-12T14:32:34.952Z,27.59
2022-08-12T14:35:09.425Z,27.61
2022-08-12T14:37:56.196Z,27.63
2022-08-12T14:40:27.578Z,27.68
2022-08-12T14:42:57.025Z,27.66
2022-08-12T14:45:24.556Z,27.66
2022-08-12T14:48:11.397Z,27.71
2022-08-12T14:52:07.931Z,27.76
2022-08-12T14:57:19.585Z,27.69
2022-08-12T14:59:26.173Z,27.67
2022-08-12T15:01:54.669Z,27.74
2022-08-12T15:04:24.562Z,27.81
2022-08-12T15:06:53.053Z,27.88
2022-08-12T15:09:28.782Z,27.95
2022-08-12T15:12:03.205Z,27.93
2022-08-12T15:14:31.726Z,27.89
2022-08-12T15:17:00.516Z,27.80
2022-08-12T15:20:31.725Z,27.76
2022-08-12T15:22:37.831Z,27.72
2022-08-12T15:25:07.576Z,27.73
2022-08-12T15:28:04.235Z,27.74
2022-08-12T15:30:31.186Z,27.77
2022-08-12T15:32:58.441Z,27.82
2022-08-12T15:35:38.085Z,27.88
2022-08-12T15:38:13.731Z,27.94
2022-08-12T15:40:48.354Z,27.98
2022-08-12T15:43:51.521Z,27.98
2022-08-12T15:46:04.599Z,27.93
2022-08-12T15:48:34.513Z,27.90
2022-08-12T15:51:02.843Z,27.86
2022-08-12T15:53:53.076Z,27.82
2022-08-12T15:56:29.438Z,27.80
2022-08-12T15:58:58.753Z,27.79
2022-08-12T16:01:35.129Z,27.76
2022-08-12T16:04:05.364Z,27.72
2022-08-12T16:06:59.221Z,27.65
2022-08-12T16:10:06.141Z,27.57
2022-08-12T16:12:43.106Z,27.65
2022-08-12T16:15:12.015Z,27.67
2022-08-12T16:18:15.627Z,27.71
2022-08-12T16:20:33.427Z,27.70
2022-08-12T16:23:04.155Z,27.73
2022-08-12T16:26:00.060Z,27.77
2022-08-12T16:28:20.877Z,27.79
2022-08-12T16:30:54.936Z,27.82
2022-08-12T16:33:21.749Z,27.80
2022-08-12T16:35:50.220Z,27.81
2022-08-12T16:38:46.477Z,27.68
2022-08-12T16:41:44.254Z,27.62
2022-08-12T16:44:10.906Z,27.71
2022-08-12T16:46:38.013Z,27.65
2022-08-12T16:49:13.542Z,27.65
2022-08-12T16:51:46.089Z,27.64
2022-08-12T16:54:18.830Z,27.60
2022-08-12T16:56:54.669Z,27.59
2022-08-12T17:04:17.678Z,27.45
2022-08-12T17:06:48.841Z,27.54
2022-08-12T17:10:18.183Z,27.55
2022-08-12T17:12:44.147Z,27.53
2022-08-12T17:15:50.430Z,27.55
2022-08-12T17:18:39.256Z,27.48
2022-08-12T17:20:48.888Z,27.52
2022-08-12T17:23:19.178Z,27.56
2022-08-12T17:25:49.927Z,27.56
2022-08-12T17:28:18.638Z,27.57
2022-08-12T17:31:11.550Z,27.51
2022-08-12T17:33:43.538Z,27.57
2022-08-12T17:36:12.370Z,27.57
2022-08-12T17:38:40.493Z,27.57
2022-08-12T17:41:22.543Z,27.58
2022-08-12T17:43:58.264Z,27.58
2022-08-12T17:46:33.651Z,27.58
2022-08-12T17:49:18.853Z,27.59
2022-08-12T17:51:51.053Z,27.56
2022-08-12T17:54:31.406Z,27.57
2022-08-12T17:57:16.133Z,27.56
2022-08-12T17:59:48.524Z,27.57
2022-08-12T18:02:17.318Z,27.39
2022-08-12T18:05:09.673Z,27.52
2022-08-12T18:07:37.003Z,27.53
2022-08-12T18:10:07.664Z,27.53
2022-08-12T18:12:43.301Z,27.46
2022-08-12T18:16:03.259Z,27.47
2022-08-12T18:18:16.855Z,27.47
2022-08-12T18:20:45.017Z,27.46
2022-08-12T18:23:12.245Z,27.47
2022-08-12T18:26:16.413Z,27.47
2022-08-12T18:28:45.146Z,27.45
2022-08-12T18:31:19.556Z,27.44
2022-08-12T18:33:49.704Z,27.42
2022-08-12T18:36:22.611Z,27.41
2022-08-12T18:38:59.277Z,27.34
2022-08-12T18:41:30.506Z,27.34
2022-08-12T18:44:09.452Z,27.27
2022-08-12T18:46:55.342Z,27.16
2022-08-12T18:49:33.347Z,27.17
2022-08-12T18:52:05.478Z,27.10
2022-08-12T18:54:49.180Z,27.07
2022-08-12T18:58:07.310Z,27.03
2022-08-12T19:00:22.240Z,26.97
2022-08-12T19:02:52.507Z,26.90
2022-08-12T19:05:20.450Z,26.84
2022-08-12T19:08:01.304Z,26.89
2022-08-12T19:10:32.715Z,26.94
2022-08-12T19:13:23.048Z,26.97
2022-08-12T19:15:58.118Z,26.99
2022-08-12T19:18:31.068Z,26.98
2022-08-12T19:21:11.833Z,26.94
2022-08-12T19:28:36.243Z,26.69
2022-08-12T19:31:57.153Z,26.44
2022-08-12T19:37:38.721Z,26.40
2022-08-12T19:44:51.772Z,26.23
2022-08-12T19:47:22.467Z,26.23
2022-08-12T19:49:55.877Z,26.18
2022-08-12T19:52:28.526Z,26.10
2022-08-12T19:54:56.407Z,26.12
2022-08-12T19:57:25.872Z,26.02
2022-08-12T20:00:03.981Z,25.96
2022-08-12T20:02:34.499Z,25.89
2022-08-12T20:06:07.747Z,25.86
2022-08-12T20:07:59.196Z,25.78
2022-08-12T20:10:35.346Z,25.68
2022-08-12T20:13:18.556Z,25.65
2022-08-12T20:15:59.540Z,25.63
2022-08-12T20:18:44.291Z,25.62
2022-08-12T20:21:16.984Z,25.59
2022-08-12T20:24:00.522Z,25.60
2022-08-12T20:26:28.018Z,25.66
2022-08-12T20:28:55.370Z,25.67
2022-08-12T20:31:22.014Z,25.67
2022-08-12T20:33:56.480Z,25.72
2022-08-12T20:36:40.807Z,25.59
2022-08-12T20:39:23.811Z,25.54
2022-08-12T20:41:59.870Z,25.50
2022-08-12T20:44:27.344Z,25.52
2022-08-12T20:46:59.058Z,25.47
2022-08-12T20:49:26.431Z,25.40
2022-08-12T20:51:59.246Z,25.39
2022-08-12T20:54:33.844Z,25.33
2022-08-12T20:57:01.925Z,25.26
2022-08-12T20:59:48.249Z,25.27
2022-08-12T21:02:24.463Z,25.24
2022-08-12T21:05:19.926Z,25.20
2022-08-12T21:07:51.968Z,25.18
2022-08-12T21:10:20.842Z,25.01
2022-08-12T21:12:48.666Z,25.05
2022-08-12T21:15:24.453Z,25.04
2022-08-12T21:18:11.342Z,24.86
2022-08-12T21:20:55.322Z,24.91
2022-08-12T21:23:22.821Z,24.96
2022-08-12T21:25:52.448Z,24.90
2022-08-12T21:28:20.446Z,24.75
2022-08-12T21:31:11.721Z,24.62
2022-08-12T21:34:07.886Z,24.65
2022-08-12T21:36:34.585Z,24.64
2022-08-12T21:39:20.760Z,24.52
2022-08-12T21:41:53.246Z,24.49
2022-08-12T21:44:24.024Z,24.65
2022-08-12T21:47:20.423Z,24.57
2022-08-12T21:50:02.327Z,24.64
2022-08-12T21:52:34.543Z,24.56
2022-08-12T21:55:08.452Z,24.57
2022-08-12T21:57:51.067Z,24.53
2022-08-12T22:00:32.514Z,24.61
2022-08-12T22:04:02.204Z,24.66
2022-08-12T22:06:26.220Z,24.50
2022-08-12T22:09:03.499Z,24.55
2022-08-12T22:11:42.407Z,24.41
2022-08-12T22:14:17.915Z,24.46
2022-08-12T22:16:49.321Z,24.44
2022-08-12T22:19:19.168Z,24.37
2022-08-12T22:21:48.249Z,24.34
2022-08-12T22:24:26.401Z,24.33
2022-08-12T22:27:22.834Z,24.22
2022-08-12T22:30:16.369Z,24.30
2022-08-12T22:32:49.682Z,24.22
2022-08-12T22:35:47.222Z,24.20
2022-08-12T22:38:26.417Z,24.07
2022-08-12T22:40:58.334Z,24.08
2022-08-12T22:44:00.982Z,24.08
2022-08-12T22:46:34.518Z,24.00
2022-08-12T22:49:01.423Z,24.00
2022-08-12T22:51:30.460Z,23.93
2022-08-12T22:54:35.564Z,23.87
2022-08-12T22:57:05.513Z,23.83
2022-08-12T22:59:55.159Z,23.79
2022-08-12T23:02:39.211Z,23.83
2022-08-12T23:05:06.153Z,23.32
2022-08-12T23:07:52.911Z,23.64
2022-08-12T23:10:26.834Z,23.60
2022-08-12T23:13:12.202Z,23.64
2022-08-12T23:15:41.117Z,23.58
2022-08-12T23:18:16.699Z,23.53
2022-08-12T23:20:43.635Z,23.54
2022-08-12T23:23:13.419Z,23.46
2022-08-12T23:25:55.020Z,23.43
2022-08-12T23:28:42.272Z,23.54
2022-08-12T23:31:09.418Z,23.47
2022-08-12T23:33:59.884Z,23.43
2022-08-12T23:36:39.058Z,23.39
2022-08-12T23:40:13.829Z,23.38
2022-08-12T23:42:17.611Z,23.27
2022-08-12T23:44:42.637Z,23.26
2022-08-12T23:47:11.186Z,23.29
2022-08-12T23:49:58.411Z,23.09
2022-08-12T23:52:34.642Z,23.14
2022-08-12T23:55:25.195Z,23.06
2022-08-12T23:58:20.938Z,22.98
